Indwe Airport


Codes: FAIW/
Name: Indwe Airport
City: Indwe
Country: South Africa
Elevation: 4167 ft.

Photos at Indwe Airport


   Photos courtesy of SpottingLog. You can add your own sightings and photos by signing up for a free trial today.



No photos found.

Weather at Indwe Airport


Time (UTC)DescriptionTempratureWindCloud coverageVisibilityPressureHumidity
21-Jun-2024 12:00Clear Sky19°C25 mph, NW6%10000m1021hPa34%
21-Jun-2024 15:00Few Clouds18°C20 mph, NW16%10000m1021hPa36%
21-Jun-2024 18:00Scattered Clouds17°C16 mph, N47%10000m1022hPa39%
21-Jun-2024 21:00Overcast Clouds15°C16 mph, NW100%10000m1022hPa42%
22-Jun-2024 00:00Broken Clouds14°C13 mph, NW79%10000m1022hPa46%
22-Jun-2024 03:00Clear Sky12°C11 mph, NW1%10000m1024hPa52%
22-Jun-2024 06:00Few Clouds10°C7 mph, NW23%10000m1027hPa61%
22-Jun-2024 09:00Broken Clouds17°C7 mph, W72%10000m1027hPa32%
22-Jun-2024 12:00Broken Clouds19°C4 mph, W73%10000m1026hPa27%
22-Jun-2024 15:00Broken Clouds14°C2 mph, SE59%10000m1028hPa46%
22-Jun-2024 18:00Broken Clouds9°C4 mph, E79%10000m1031hPa72%
22-Jun-2024 21:00Broken Clouds7°C4 mph, NE67%10000m1031hPa83%
23-Jun-2024 00:00Scattered Clouds8°C4 mph, N35%10000m1030hPa67%
23-Jun-2024 03:00Clear Sky9°C7 mph, N2%10000m1029hPa50%
23-Jun-2024 06:00Clear Sky10°C7 mph, NW1%10000m1030hPa47%
23-Jun-2024 09:00Clear Sky19°C13 mph, NW0%10000m1028hPa31%
23-Jun-2024 12:00Clear Sky20°C16 mph, NW0%10000m1026hPa28%
23-Jun-2024 15:00Clear Sky16°C7 mph, NW0%10000m1027hPa40%
23-Jun-2024 18:00Clear Sky12°C7 mph, N0%10000m1029hPa46%
23-Jun-2024 21:00Clear Sky11°C7 mph, N0%10000m1029hPa49%
24-Jun-2024 00:00Clear Sky10°C7 mph, N0%10000m1029hPa53%
24-Jun-2024 03:00Clear Sky10°C7 mph, N0%10000m1029hPa56%
24-Jun-2024 06:00Clear Sky11°C7 mph, N0%10000m1030hPa54%
24-Jun-2024 09:00Clear Sky19°C13 mph, NW0%10000m1028hPa33%
24-Jun-2024 12:00Clear Sky20°C13 mph, NW0%10000m1025hPa29%
24-Jun-2024 15:00Clear Sky15°C7 mph, NW0%10000m1026hPa41%
24-Jun-2024 18:00Clear Sky12°C7 mph, NW3%10000m1028hPa47%
24-Jun-2024 21:00Broken Clouds12°C7 mph, NW69%10000m1029hPa49%
25-Jun-2024 00:00Broken Clouds11°C7 mph, NW78%10000m1029hPa52%
25-Jun-2024 03:00Clear Sky10°C2 mph, NW7%10000m1030hPa58%
25-Jun-2024 06:00Clear Sky8°C2 mph, SE4%10000m1034hPa70%
25-Jun-2024 09:00Few Clouds12°C7 mph, SE13%10000m1034hPa67%
25-Jun-2024 12:00Few Clouds15°C7 mph, SE20%10000m1031hPa56%
25-Jun-2024 15:00Few Clouds12°C4 mph, E12%10000m1031hPa69%
25-Jun-2024 18:00Clear Sky8°C0 mph, SE6%10000m1033hPa84%
25-Jun-2024 21:00Clear Sky7°C2 mph, N0%10000m1034hPa86%
26-Jun-2024 00:00Clear Sky7°C4 mph, NW0%10000m1033hPa82%
26-Jun-2024 03:00Clear Sky7°C4 mph, NW0%10000m1033hPa71%
26-Jun-2024 06:00Clear Sky8°C4 mph, NW1%10000m1034hPa57%
26-Jun-2024 09:00Clear Sky15°C2 mph, W8%10000m1033hPa31%